sensor_id;sensor_type;location;lat;lon;timestamp;temperature;humidity
26414;DHT22;14108;53.668;10.288;2022-12-07T00:01:19;6.20;77.10
26414;DHT22;14108;53.668;10.288;2022-12-07T00:03:47;6.20;77.10
26414;DHT22;14108;53.668;10.288;2022-12-07T00:06:16;6.20;76.90
26414;DHT22;14108;53.668;10.288;2022-12-07T00:08:45;6.20;76.90
26414;DHT22;14108;53.668;10.288;2022-12-07T00:11:14;6.20;76.80
26414;DHT22;14108;53.668;10.288;2022-12-07T00:13:42;6.20;76.80
26414;DHT22;14108;53.668;10.288;2022-12-07T00:16:11;6.20;76.80
26414;DHT22;14108;53.668;10.288;2022-12-07T00:18:39;6.20;76.80
26414;DHT22;14108;53.668;10.288;2022-12-07T00:21:09;6.20;77.10
26414;DHT22;14108;53.668;10.288;2022-12-07T00:23:37;6.20;77.30
26414;DHT22;14108;53.668;10.288;2022-12-07T00:26:05;6.20;77.60
26414;DHT22;14108;53.668;10.288;2022-12-07T00:28:32;6.20;77.80
26414;DHT22;14108;53.668;10.288;2022-12-07T00:31:02;6.20;78.00
26414;DHT22;14108;53.668;10.288;2022-12-07T00:33:29;6.20;78.10
26414;DHT22;14108;53.668;10.288;2022-12-07T00:35:57;6.30;78.10
26414;DHT22;14108;53.668;10.288;2022-12-07T00:38:27;6.30;78.10
26414;DHT22;14108;53.668;10.288;2022-12-07T00:40:58;6.30;78.20
26414;DHT22;14108;53.668;10.288;2022-12-07T00:43:25;6.30;78.20
26414;DHT22;14108;53.668;10.288;2022-12-07T00:45:53;6.30;78.20
26414;DHT22;14108;53.668;10.288;2022-12-07T00:48:21;6.30;78.30
26414;DHT22;14108;53.668;10.288;2022-12-07T00:50:49;6.30;78.20
26414;DHT22;14108;53.668;10.288;2022-12-07T00:53:16;6.40;78.30
26414;DHT22;14108;53.668;10.288;2022-12-07T00:55:43;6.30;78.40
26414;DHT22;14108;53.668;10.288;2022-12-07T00:58:11;6.30;78.40
26414;DHT22;14108;53.668;10.288;2022-12-07T01:00:40;6.40;78.50
26414;DHT22;14108;53.668;10.288;2022-12-07T01:03:10;6.40;78.30
26414;DHT22;14108;53.668;10.288;2022-12-07T01:05:38;6.40;78.30
26414;DHT22;14108;53.668;10.288;2022-12-07T01:08:06;6.40;78.40
26414;DHT22;14108;53.668;10.288;2022-12-07T01:10:33;6.40;78.50
26414;DHT22;14108;53.668;10.288;2022-12-07T01:13:00;6.40;78.90
26414;DHT22;14108;53.668;10.288;2022-12-07T01:15:27;6.40;79.00
26414;DHT22;14108;53.668;10.288;2022-12-07T01:17:55;6.40;79.10
26414;DHT22;14108;53.668;10.288;2022-12-07T01:20:22;6.40;79.20
26414;DHT22;14108;53.668;10.288;2022-12-07T01:22:49;6.40;79.00
26414;DHT22;14108;53.668;10.288;2022-12-07T01:25:17;6.50;78.90
26414;DHT22;14108;53.668;10.288;2022-12-07T01:27:44;6.50;78.90
26414;DHT22;14108;53.668;10.288;2022-12-07T01:30:14;6.50;79.10
26414;DHT22;14108;53.668;10.288;2022-12-07T01:32:41;6.50;79.10
26414;DHT22;14108;53.668;10.288;2022-12-07T01:35:08;6.50;79.10
26414;DHT22;14108;53.668;10.288;2022-12-07T01:37:37;6.50;79.20
26414;DHT22;14108;53.668;10.288;2022-12-07T01:40:06;6.60;79.10
26414;DHT22;14108;53.668;10.288;2022-12-07T01:42:34;6.60;79.20
26414;DHT22;14108;53.668;10.288;2022-12-07T01:48:17;6.60;79.00
26414;DHT22;14108;53.668;10.288;2022-12-07T01:50:49;6.60;78.80
26414;DHT22;14108;53.668;10.288;2022-12-07T01:53:17;6.60;78.90
26414;DHT22;14108;53.668;10.288;2022-12-07T01:55:47;6.60;78.90
26414;DHT22;14108;53.668;10.288;2022-12-07T01:58:17;6.60;78.90
26414;DHT22;14108;53.668;10.288;2022-12-07T02:00:44;6.60;78.80
26414;DHT22;14108;53.668;10.288;2022-12-07T02:03:16;6.60;78.80
26414;DHT22;14108;53.668;10.288;2022-12-07T02:05:45;6.60;78.90
26414;DHT22;14108;53.668;10.288;2022-12-07T02:08:14;6.60;79.00
26414;DHT22;14108;53.668;10.288;2022-12-07T02:10:41;6.60;79.00
26414;DHT22;14108;53.668;10.288;2022-12-07T02:13:12;6.60;79.10
26414;DHT22;14108;53.668;10.288;2022-12-07T02:15:58;6.60;79.10
26414;DHT22;14108;53.668;10.288;2022-12-07T02:18:37;6.60;79.10
26414;DHT22;14108;53.668;10.288;2022-12-07T02:21:09;6.60;79.10
26414;DHT22;14108;53.668;10.288;2022-12-07T02:24:03;6.60;79.40
26414;DHT22;14108;53.668;10.288;2022-12-07T02:27:04;6.60;79.60
26414;DHT22;14108;53.668;10.288;2022-12-07T02:29:36;6.60;79.50
26414;DHT22;14108;53.668;10.288;2022-12-07T02:32:08;6.70;79.20
26414;DHT22;14108;53.668;10.288;2022-12-07T02:34:44;6.70;79.20
26414;DHT22;14108;53.668;10.288;2022-12-07T02:37:20;6.70;79.20
26414;DHT22;14108;53.668;10.288;2022-12-07T02:39:52;6.70;79.20
26414;DHT22;14108;53.668;10.288;2022-12-07T02:42:22;6.70;79.00
26414;DHT22;14108;53.668;10.288;2022-12-07T02:44:51;6.80;78.80
26414;DHT22;14108;53.668;10.288;2022-12-07T02:47:19;6.80;78.50
26414;DHT22;14108;53.668;10.288;2022-12-07T02:49:48;6.70;78.80
26414;DHT22;14108;53.668;10.288;2022-12-07T02:52:16;6.70;78.90
26414;DHT22;14108;53.668;10.288;2022-12-07T02:54:43;6.70;79.20
26414;DHT22;14108;53.668;10.288;2022-12-07T02:57:29;6.70;79.00
26414;DHT22;14108;53.668;10.288;2022-12-07T03:00:04;6.60;78.90
26414;DHT22;14108;53.668;10.288;2022-12-07T03:02:38;6.60;78.80
26414;DHT22;14108;53.668;10.288;2022-12-07T03:05:27;6.60;78.60
26414;DHT22;14108;53.668;10.288;2022-12-07T03:08:02;6.60;78.50
26414;DHT22;14108;53.668;10.288;2022-12-07T03:10:42;6.60;78.40
26414;DHT22;14108;53.668;10.288;2022-12-07T03:13:19;6.60;78.30
26414;DHT22;14108;53.668;10.288;2022-12-07T03:15:53;6.50;78.00
26414;DHT22;14108;53.668;10.288;2022-12-07T03:18:22;6.50;78.00
26414;DHT22;14108;53.668;10.288;2022-12-07T03:20:52;6.50;78.00
26414;DHT22;14108;53.668;10.288;2022-12-07T03:23:21;6.50;77.80
26414;DHT22;14108;53.668;10.288;2022-12-07T03:25:53;6.40;77.60
26414;DHT22;14108;53.668;10.288;2022-12-07T03:28:26;6.40;77.70
26414;DHT22;14108;53.668;10.288;2022-12-07T03:30:57;6.40;77.90
26414;DHT22;14108;53.668;10.288;2022-12-07T03:33:29;6.30;77.70
26414;DHT22;14108;53.668;10.288;2022-12-07T03:36:03;6.30;77.80
26414;DHT22;14108;53.668;10.288;2022-12-07T03:38:36;6.30;77.90
26414;DHT22;14108;53.668;10.288;2022-12-07T03:41:08;6.20;77.80
26414;DHT22;14108;53.668;10.288;2022-12-07T03:43:36;6.20;77.80
26414;DHT22;14108;53.668;10.288;2022-12-07T03:46:12;6.20;77.60
26414;DHT22;14108;53.668;10.288;2022-12-07T03:48:44;6.20;77.60
26414;DHT22;14108;53.668;10.288;2022-12-07T03:51:20;6.20;77.60
26414;DHT22;14108;53.668;10.288;2022-12-07T03:53:53;6.10;77.80
26414;DHT22;14108;53.668;10.288;2022-12-07T03:56:22;6.10;77.80
26414;DHT22;14108;53.668;10.288;2022-12-07T03:58:50;6.10;77.80
26414;DHT22;14108;53.668;10.288;2022-12-07T04:01:19;6.00;77.90
26414;DHT22;14108;53.668;10.288;2022-12-07T04:03:46;6.00;78.10
26414;DHT22;14108;53.668;10.288;2022-12-07T04:06:13;6.00;78.10
26414;DHT22;14108;53.668;10.288;2022-12-07T04:08:41;6.00;78.30
26414;DHT22;14108;53.668;10.288;2022-12-07T04:11:08;5.90;78.40
26414;DHT22;14108;53.668;10.288;2022-12-07T04:13:35;5.90;78.60
26414;DHT22;14108;53.668;10.288;2022-12-07T04:16:45;5.90;78.50
26414;DHT22;14108;53.668;10.288;2022-12-07T04:19:12;6.00;78.10
26414;DHT22;14108;53.668;10.288;2022-12-07T04:21:39;5.90;77.80
26414;DHT22;14108;53.668;10.288;2022-12-07T04:24:07;5.90;78.10
26414;DHT22;14108;53.668;10.288;2022-12-07T04:26:34;5.90;78.20
26414;DHT22;14108;53.668;10.288;2022-12-07T04:29:01;5.80;78.20
26414;DHT22;14108;53.668;10.288;2022-12-07T04:31:29;5.80;78.30
26414;DHT22;14108;53.668;10.288;2022-12-07T04:33:56;5.80;78.30
26414;DHT22;14108;53.668;10.288;2022-12-07T04:36:23;5.80;78.30
26414;DHT22;14108;53.668;10.288;2022-12-07T04:38:52;5.80;78.30
26414;DHT22;14108;53.668;10.288;2022-12-07T04:41:19;5.80;78.00
26414;DHT22;14108;53.668;10.288;2022-12-07T04:43:54;5.80;78.10
26414;DHT22;14108;53.668;10.288;2022-12-07T04:46:22;5.80;78.00
26414;DHT22;14108;53.668;10.288;2022-12-07T04:48:49;5.80;77.80
26414;DHT22;14108;53.668;10.288;2022-12-07T04:51:21;5.80;78.00
26414;DHT22;14108;53.668;10.288;2022-12-07T04:53:49;5.70;78.10
26414;DHT22;14108;53.668;10.288;2022-12-07T04:56:17;5.70;78.10
26414;DHT22;14108;53.668;10.288;2022-12-07T04:58:45;5.70;78.20
26414;DHT22;14108;53.668;10.288;2022-12-07T05:01:13;5.70;78.10
26414;DHT22;14108;53.668;10.288;2022-12-07T05:03:40;5.70;78.20
26414;DHT22;14108;53.668;10.288;2022-12-07T05:06:08;5.70;78.30
26414;DHT22;14108;53.668;10.288;2022-12-07T05:08:36;5.70;78.20
26414;DHT22;14108;53.668;10.288;2022-12-07T05:11:04;5.70;78.20
26414;DHT22;14108;53.668;10.288;2022-12-07T05:13:32;5.70;78.20
26414;DHT22;14108;53.668;10.288;2022-12-07T05:15:59;5.80;78.10
26414;DHT22;14108;53.668;10.288;2022-12-07T05:18:26;5.80;78.10
26414;DHT22;14108;53.668;10.288;2022-12-07T05:20:53;5.80;77.90
26414;DHT22;14108;53.668;10.288;2022-12-07T05:23:20;5.80;77.70
26414;DHT22;14108;53.668;10.288;2022-12-07T05:25:48;5.70;77.50
26414;DHT22;14108;53.668;10.288;2022-12-07T05:28:15;5.80;77.50
26414;DHT22;14108;53.668;10.288;2022-12-07T05:30:42;5.70;77.20
26414;DHT22;14108;53.668;10.288;2022-12-07T05:33:09;5.70;77.10
26414;DHT22;14108;53.668;10.288;2022-12-07T05:35:36;5.70;76.90
26414;DHT22;14108;53.668;10.288;2022-12-07T05:38:04;5.70;76.80
26414;DHT22;14108;53.668;10.288;2022-12-07T05:40:31;5.70;76.60
26414;DHT22;14108;53.668;10.288;2022-12-07T05:42:58;5.70;76.40
26414;DHT22;14108;53.668;10.288;2022-12-07T05:45:25;5.70;76.40
26414;DHT22;14108;53.668;10.288;2022-12-07T05:47:52;5.70;76.30
26414;DHT22;14108;53.668;10.288;2022-12-07T05:50:20;5.60;76.20
26414;DHT22;14108;53.668;10.288;2022-12-07T05:52:47;5.60;76.20
26414;DHT22;14108;53.668;10.288;2022-12-07T05:55:15;5.60;76.20
26414;DHT22;14108;53.668;10.288;2022-12-07T05:57:42;5.60;76.00
26414;DHT22;14108;53.668;10.288;2022-12-07T06:01:48;5.60;75.90
26414;DHT22;14108;53.668;10.288;2022-12-07T06:04:16;5.60;75.80
26414;DHT22;14108;53.668;10.288;2022-12-07T06:06:43;5.60;77.00
26414;DHT22;14108;53.668;10.288;2022-12-07T06:09:10;5.60;77.80
26414;DHT22;14108;53.668;10.288;2022-12-07T06:11:39;5.60;77.60
26414;DHT22;14108;53.668;10.288;2022-12-07T06:14:25;5.60;77.10
26414;DHT22;14108;53.668;10.288;2022-12-07T06:16:52;5.60;76.40
26414;DHT22;14108;53.668;10.288;2022-12-07T06:19:19;5.60;76.00
26414;DHT22;14108;53.668;10.288;2022-12-07T06:21:47;5.50;75.80
26414;DHT22;14108;53.668;10.288;2022-12-07T06:24:15;5.50;75.60
26414;DHT22;14108;53.668;10.288;2022-12-07T06:26:43;5.50;76.20
26414;DHT22;14108;53.668;10.288;2022-12-07T06:29:11;5.60;77.50
26414;DHT22;14108;53.668;10.288;2022-12-07T06:31:39;5.60;77.60
26414;DHT22;14108;53.668;10.288;2022-12-07T06:34:09;5.60;77.20
26414;DHT22;14108;53.668;10.288;2022-12-07T06:36:37;5.60;76.30
26414;DHT22;14108;53.668;10.288;2022-12-07T06:39:04;5.60;75.70
26414;DHT22;14108;53.668;10.288;2022-12-07T06:41:32;5.60;75.20
26414;DHT22;14108;53.668;10.288;2022-12-07T06:43:59;5.50;75.00
26414;DHT22;14108;53.668;10.288;2022-12-07T06:46:26;5.50;74.90
26414;DHT22;14108;53.668;10.288;2022-12-07T06:48:53;5.50;74.90
26414;DHT22;14108;53.668;10.288;2022-12-07T06:51:21;5.40;74.80
26414;DHT22;14108;53.668;10.288;2022-12-07T06:53:48;5.40;74.80
26414;DHT22;14108;53.668;10.288;2022-12-07T06:56:15;5.40;74.80
26414;DHT22;14108;53.668;10.288;2022-12-07T06:58:42;5.40;74.90
26414;DHT22;14108;53.668;10.288;2022-12-07T07:01:11;5.40;74.90
26414;DHT22;14108;53.668;10.288;2022-12-07T07:03:38;5.30;75.00
26414;DHT22;14108;53.668;10.288;2022-12-07T07:06:07;5.30;75.20
26414;DHT22;14108;53.668;10.288;2022-12-07T07:08:34;5.30;75.20
26414;DHT22;14108;53.668;10.288;2022-12-07T07:11:02;5.30;75.20
26414;DHT22;14108;53.668;10.288;2022-12-07T07:13:29;5.30;75.40
26414;DHT22;14108;53.668;10.288;2022-12-07T07:15:56;5.30;75.40
26414;DHT22;14108;53.668;10.288;2022-12-07T07:18:23;5.20;75.40
26414;DHT22;14108;53.668;10.288;2022-12-07T07:20:51;5.20;75.80
26414;DHT22;14108;53.668;10.288;2022-12-07T07:23:19;5.10;75.90
26414;DHT22;14108;53.668;10.288;2022-12-07T07:25:46;5.20;75.90
26414;DHT22;14108;53.668;10.288;2022-12-07T07:28:14;5.10;76.10
26414;DHT22;14108;53.668;10.288;2022-12-07T07:30:41;5.10;76.20
26414;DHT22;14108;53.668;10.288;2022-12-07T07:33:09;5.10;76.30
26414;DHT22;14108;53.668;10.288;2022-12-07T07:35:37;5.10;76.40
26414;DHT22;14108;53.668;10.288;2022-12-07T07:38:04;5.10;76.50
26414;DHT22;14108;53.668;10.288;2022-12-07T07:40:32;5.10;76.50
26414;DHT22;14108;53.668;10.288;2022-12-07T07:43:00;5.20;76.70
26414;DHT22;14108;53.668;10.288;2022-12-07T07:45:28;5.10;76.70
26414;DHT22;14108;53.668;10.288;2022-12-07T07:47:55;5.10;76.60
26414;DHT22;14108;53.668;10.288;2022-12-07T07:50:22;5.20;76.90
26414;DHT22;14108;53.668;10.288;2022-12-07T07:52:50;5.20;76.80
26414;DHT22;14108;53.668;10.288;2022-12-07T07:55:18;5.10;76.80
26414;DHT22;14108;53.668;10.288;2022-12-07T07:57:45;5.20;76.70
26414;DHT22;14108;53.668;10.288;2022-12-07T08:00:15;5.20;76.80
26414;DHT22;14108;53.668;10.288;2022-12-07T08:02:43;5.20;77.10
26414;DHT22;14108;53.668;10.288;2022-12-07T08:05:10;5.10;77.20
26414;DHT22;14108;53.668;10.288;2022-12-07T08:07:38;5.20;77.20
26414;DHT22;14108;53.668;10.288;2022-12-07T08:10:08;5.10;77.30
26414;DHT22;14108;53.668;10.288;2022-12-07T08:12:37;5.20;77.50
26414;DHT22;14108;53.668;10.288;2022-12-07T08:15:38;5.20;77.50
26414;DHT22;14108;53.668;10.288;2022-12-07T08:18:06;5.20;77.20
26414;DHT22;14108;53.668;10.288;2022-12-07T08:20:35;5.20;77.20
26414;DHT22;14108;53.668;10.288;2022-12-07T08:23:03;5.20;77.50
26414;DHT22;14108;53.668;10.288;2022-12-07T08:25:30;5.20;77.80
26414;DHT22;14108;53.668;10.288;2022-12-07T08:27:58;5.20;77.90
26414;DHT22;14108;53.668;10.288;2022-12-07T08:30:27;5.20;77.80
26414;DHT22;14108;53.668;10.288;2022-12-07T08:32:54;5.20;77.80
26414;DHT22;14108;53.668;10.288;2022-12-07T08:35:22;5.20;77.90
26414;DHT22;14108;53.668;10.288;2022-12-07T08:37:49;5.30;77.90
26414;DHT22;14108;53.668;10.288;2022-12-07T08:40:17;5.30;77.90
26414;DHT22;14108;53.668;10.288;2022-12-07T08:42:49;5.30;77.70
26414;DHT22;14108;53.668;10.288;2022-12-07T08:45:18;5.30;77.90
26414;DHT22;14108;53.668;10.288;2022-12-07T08:47:49;5.30;77.90
26414;DHT22;14108;53.668;10.288;2022-12-07T08:50:18;5.30;78.00
26414;DHT22;14108;53.668;10.288;2022-12-07T08:52:49;5.30;77.70
26414;DHT22;14108;53.668;10.288;2022-12-07T08:55:18;5.30;77.70
26414;DHT22;14108;53.668;10.288;2022-12-07T08:57:45;5.40;78.10
26414;DHT22;14108;53.668;10.288;2022-12-07T09:00:15;5.40;78.00
26414;DHT22;14108;53.668;10.288;2022-12-07T09:02:43;5.40;78.10
26414;DHT22;14108;53.668;10.288;2022-12-07T09:05:11;5.40;77.50
26414;DHT22;14108;53.668;10.288;2022-12-07T09:07:42;5.40;78.50
26414;DHT22;14108;53.668;10.288;2022-12-07T09:10:11;5.40;77.80
26414;DHT22;14108;53.668;10.288;2022-12-07T09:12:38;5.40;78.10
26414;DHT22;14108;53.668;10.288;2022-12-07T09:15:08;5.50;78.20
26414;DHT22;14108;53.668;10.288;2022-12-07T09:17:35;5.50;78.20
26414;DHT22;14108;53.668;10.288;2022-12-07T09:20:04;5.50;78.10
26414;DHT22;14108;53.668;10.288;2022-12-07T09:22:32;5.50;78.40
26414;DHT22;14108;53.668;10.288;2022-12-07T09:25:00;5.60;78.50
26414;DHT22;14108;53.668;10.288;2022-12-07T09:27:28;5.60;78.30
26414;DHT22;14108;53.668;10.288;2022-12-07T09:29:55;5.70;78.30
26414;DHT22;14108;53.668;10.288;2022-12-07T09:32:22;5.70;78.20
26414;DHT22;14108;53.668;10.288;2022-12-07T09:34:50;5.70;78.20
26414;DHT22;14108;53.668;10.288;2022-12-07T09:37:17;5.70;78.10
26414;DHT22;14108;53.668;10.288;2022-12-07T09:39:44;5.80;78.10
26414;DHT22;14108;53.668;10.288;2022-12-07T09:42:28;5.80;78.10
26414;DHT22;14108;53.668;10.288;2022-12-07T09:44:56;5.80;78.10
26414;DHT22;14108;53.668;10.288;2022-12-07T09:47:24;5.90;78.00
26414;DHT22;14108;53.668;10.288;2022-12-07T09:49:53;5.90;77.90
26414;DHT22;14108;53.668;10.288;2022-12-07T09:52:26;6.00;77.90
26414;DHT22;14108;53.668;10.288;2022-12-07T09:54:53;6.00;77.90
26414;DHT22;14108;53.668;10.288;2022-12-07T09:57:27;6.00;77.80
26414;DHT22;14108;53.668;10.288;2022-12-07T09:59:56;6.00;77.80
26414;DHT22;14108;53.668;10.288;2022-12-07T10:02:35;6.00;77.80
26414;DHT22;14108;53.668;10.288;2022-12-07T10:05:05;6.10;77.70
26414;DHT22;14108;53.668;10.288;2022-12-07T10:07:33;6.10;77.30
26414;DHT22;14108;53.668;10.288;2022-12-07T10:10:02;6.10;77.70
26414;DHT22;14108;53.668;10.288;2022-12-07T10:12:29;6.10;77.80
26414;DHT22;14108;53.668;10.288;2022-12-07T10:15:01;6.10;77.70
26414;DHT22;14108;53.668;10.288;2022-12-07T10:17:35;6.20;77.80
26414;DHT22;14108;53.668;10.288;2022-12-07T10:23:04;6.20;78.00
26414;DHT22;14108;53.668;10.288;2022-12-07T10:25:33;6.30;77.80
26414;DHT22;14108;53.668;10.288;2022-12-07T10:28:09;6.30;77.90
26414;DHT22;14108;53.668;10.288;2022-12-07T10:30:57;6.30;77.90
26414;DHT22;14108;53.668;10.288;2022-12-07T10:33:30;6.40;77.90
26414;DHT22;14108;53.668;10.288;2022-12-07T10:35:58;6.40;77.60
26414;DHT22;14108;53.668;10.288;2022-12-07T10:38:27;6.40;77.40
26414;DHT22;14108;53.668;10.288;2022-12-07T10:41:07;6.40;77.30
26414;DHT22;14108;53.668;10.288;2022-12-07T10:43:34;6.50;77.20
26414;DHT22;14108;53.668;10.288;2022-12-07T10:46:39;6.50;76.90
26414;DHT22;14108;53.668;10.288;2022-12-07T10:49:51;6.50;77.00
26414;DHT22;14108;53.668;10.288;2022-12-07T10:52:32;6.50;76.70
26414;DHT22;14108;53.668;10.288;2022-12-07T10:55:11;6.50;76.50
26414;DHT22;14108;53.668;10.288;2022-12-07T10:57:49;6.50;76.70
26414;DHT22;14108;53.668;10.288;2022-12-07T11:00:20;6.50;76.60
26414;DHT22;14108;53.668;10.288;2022-12-07T11:03:18;6.50;76.30
26414;DHT22;14108;53.668;10.288;2022-12-07T11:05:54;6.50;76.00
26414;DHT22;14108;53.668;10.288;2022-12-07T11:08:31;6.50;75.60
26414;DHT22;14108;53.668;10.288;2022-12-07T11:11:09;6.50;75.80
26414;DHT22;14108;53.668;10.288;2022-12-07T11:13:43;6.50;76.10
26414;DHT22;14108;53.668;10.288;2022-12-07T11:16:22;6.50;76.20
26414;DHT22;14108;53.668;10.288;2022-12-07T11:19:05;6.60;76.10
26414;DHT22;14108;53.668;10.288;2022-12-07T11:21:39;6.60;75.90
26414;DHT22;14108;53.668;10.288;2022-12-07T11:24:13;6.70;75.90
26414;DHT22;14108;53.668;10.288;2022-12-07T11:26:51;6.70;75.90
26414;DHT22;14108;53.668;10.288;2022-12-07T11:32:34;6.70;75.60
26414;DHT22;14108;53.668;10.288;2022-12-07T11:35:11;6.70;75.10
26414;DHT22;14108;53.668;10.288;2022-12-07T11:37:39;6.70;74.90
26414;DHT22;14108;53.668;10.288;2022-12-07T11:40:17;6.80;74.50
26414;DHT22;14108;53.668;10.288;2022-12-07T11:42:51;6.70;74.30
26414;DHT22;14108;53.668;10.288;2022-12-07T11:45:22;6.70;74.20
26414;DHT22;14108;53.668;10.288;2022-12-07T11:47:54;6.70;73.90
26414;DHT22;14108;53.668;10.288;2022-12-07T11:50:27;6.70;74.30
26414;DHT22;14108;53.668;10.288;2022-12-07T11:52:59;6.70;74.20
26414;DHT22;14108;53.668;10.288;2022-12-07T11:55:32;6.70;74.00
26414;DHT22;14108;53.668;10.288;2022-12-07T11:58:15;6.70;73.90
26414;DHT22;14108;53.668;10.288;2022-12-07T12:00:48;6.70;74.00
26414;DHT22;14108;53.668;10.288;2022-12-07T12:03:22;6.80;73.70
26414;DHT22;14108;53.668;10.288;2022-12-07T12:05:56;6.70;73.80
26414;DHT22;14108;53.668;10.288;2022-12-07T12:08:27;6.80;73.40
26414;DHT22;14108;53.668;10.288;2022-12-07T12:10:58;6.80;73.40
26414;DHT22;14108;53.668;10.288;2022-12-07T12:13:47;6.80;73.30
26414;DHT22;14108;53.668;10.288;2022-12-07T12:16:37;6.80;73.10
26414;DHT22;14108;53.668;10.288;2022-12-07T12:19:23;6.80;73.00
26414;DHT22;14108;53.668;10.288;2022-12-07T12:21:57;6.90;72.60
26414;DHT22;14108;53.668;10.288;2022-12-07T12:24:28;6.80;71.90
26414;DHT22;14108;53.668;10.288;2022-12-07T12:27:01;6.80;72.00
26414;DHT22;14108;53.668;10.288;2022-12-07T12:29:33;6.80;71.90
26414;DHT22;14108;53.668;10.288;2022-12-07T12:32:13;6.80;71.20
26414;DHT22;14108;53.668;10.288;2022-12-07T12:34:56;6.80;70.60
26414;DHT22;14108;53.668;10.288;2022-12-07T12:37:41;6.80;69.90
26414;DHT22;14108;53.668;10.288;2022-12-07T12:40:40;6.70;69.10
26414;DHT22;14108;53.668;10.288;2022-12-07T12:46:45;6.60;68.20
26414;DHT22;14108;53.668;10.288;2022-12-07T12:50:10;6.60;68.40
26414;DHT22;14108;53.668;10.288;2022-12-07T12:53:20;6.60;68.40
26414;DHT22;14108;53.668;10.288;2022-12-07T12:56:21;6.60;67.60
26414;DHT22;14108;53.668;10.288;2022-12-07T12:59:23;6.50;66.60
26414;DHT22;14108;53.668;10.288;2022-12-07T13:01:51;6.60;66.10
26414;DHT22;14108;53.668;10.288;2022-12-07T13:04:49;6.60;64.80
26414;DHT22;14108;53.668;10.288;2022-12-07T13:07:54;6.50;63.80
26414;DHT22;14108;53.668;10.288;2022-12-07T13:10:32;6.60;63.50
26414;DHT22;14108;53.668;10.288;2022-12-07T13:13:02;6.50;62.80
26414;DHT22;14108;53.668;10.288;2022-12-07T13:15:35;6.50;62.10
26414;DHT22;14108;53.668;10.288;2022-12-07T13:18:04;6.50;62.30
26414;DHT22;14108;53.668;10.288;2022-12-07T13:20:51;6.50;62.80
26414;DHT22;14108;53.668;10.288;2022-12-07T13:23:31;6.50;63.20
26414;DHT22;14108;53.668;10.288;2022-12-07T13:26:07;6.50;63.00
26414;DHT22;14108;53.668;10.288;2022-12-07T13:28:37;6.60;62.70
26414;DHT22;14108;53.668;10.288;2022-12-07T13:31:24;6.50;61.90
26414;DHT22;14108;53.668;10.288;2022-12-07T13:33:53;6.60;62.00
26414;DHT22;14108;53.668;10.288;2022-12-07T13:36:22;6.60;60.90
26414;DHT22;14108;53.668;10.288;2022-12-07T13:38:53;6.60;61.30
26414;DHT22;14108;53.668;10.288;2022-12-07T13:41:21;6.60;61.10
26414;DHT22;14108;53.668;10.288;2022-12-07T13:43:55;6.60;60.80
26414;DHT22;14108;53.668;10.288;2022-12-07T13:46:31;6.50;60.50
26414;DHT22;14108;53.668;10.288;2022-12-07T13:48:59;6.50;60.10
26414;DHT22;14108;53.668;10.288;2022-12-07T13:51:27;6.40;60.20
26414;DHT22;14108;53.668;10.288;2022-12-07T13:53:57;6.40;60.30
26414;DHT22;14108;53.668;10.288;2022-12-07T13:56:31;6.40;60.90
26414;DHT22;14108;53.668;10.288;2022-12-07T13:58:59;6.50;61.10
26414;DHT22;14108;53.668;10.288;2022-12-07T14:01:26;6.50;61.20
26414;DHT22;14108;53.668;10.288;2022-12-07T14:03:55;6.50;60.90
26414;DHT22;14108;53.668;10.288;2022-12-07T14:06:24;6.50;61.10
26414;DHT22;14108;53.668;10.288;2022-12-07T14:09:07;6.50;61.30
26414;DHT22;14108;53.668;10.288;2022-12-07T14:11:35;6.50;59.90
26414;DHT22;14108;53.668;10.288;2022-12-07T14:14:03;6.50;60.30
26414;DHT22;14108;53.668;10.288;2022-12-07T14:16:34;6.50;60.30
26414;DHT22;14108;53.668;10.288;2022-12-07T14:19:03;6.40;60.60
26414;DHT22;14108;53.668;10.288;2022-12-07T14:21:32;6.50;61.00
26414;DHT22;14108;53.668;10.288;2022-12-07T14:26:55;6.40;60.90
26414;DHT22;14108;53.668;10.288;2022-12-07T14:29:30;6.40;60.80
26414;DHT22;14108;53.668;10.288;2022-12-07T14:32:17;6.30;60.70
26414;DHT22;14108;53.668;10.288;2022-12-07T14:34:54;6.30;61.10
26414;DHT22;14108;53.668;10.288;2022-12-07T14:37:23;6.30;61.30
26414;DHT22;14108;53.668;10.288;2022-12-07T14:39:50;6.30;61.10
26414;DHT22;14108;53.668;10.288;2022-12-07T14:42:17;6.30;61.10
26414;DHT22;14108;53.668;10.288;2022-12-07T14:44:44;6.20;60.60
26414;DHT22;14108;53.668;10.288;2022-12-07T14:47:12;6.20;60.60
26414;DHT22;14108;53.668;10.288;2022-12-07T14:49:39;6.10;60.70
26414;DHT22;14108;53.668;10.288;2022-12-07T14:52:11;6.10;61.10
26414;DHT22;14108;53.668;10.288;2022-12-07T14:54:40;6.10;61.20
26414;DHT22;14108;53.668;10.288;2022-12-07T14:57:09;6.10;61.00
26414;DHT22;14108;53.668;10.288;2022-12-07T14:59:37;6.10;61.00
26414;DHT22;14108;53.668;10.288;2022-12-07T15:02:04;6.10;61.60
26414;DHT22;14108;53.668;10.288;2022-12-07T15:04:32;6.00;61.10
26414;DHT22;14108;53.668;10.288;2022-12-07T15:07:00;6.00;61.20
26414;DHT22;14108;53.668;10.288;2022-12-07T15:09:28;6.00;61.40
26414;DHT22;14108;53.668;10.288;2022-12-07T15:11:55;6.00;61.30
26414;DHT22;14108;53.668;10.288;2022-12-07T15:14:23;5.90;61.30
26414;DHT22;14108;53.668;10.288;2022-12-07T15:16:50;5.90;62.20
26414;DHT22;14108;53.668;10.288;2022-12-07T15:19:19;5.90;61.80
26414;DHT22;14108;53.668;10.288;2022-12-07T15:21:46;5.80;61.90
26414;DHT22;14108;53.668;10.288;2022-12-07T15:24:13;5.90;62.00
26414;DHT22;14108;53.668;10.288;2022-12-07T15:26:41;5.80;62.00
26414;DHT22;14108;53.668;10.288;2022-12-07T15:29:09;5.80;62.00
26414;DHT22;14108;53.668;10.288;2022-12-07T15:31:37;5.80;62.00
26414;DHT22;14108;53.668;10.288;2022-12-07T15:34:04;5.70;62.10
26414;DHT22;14108;53.668;10.288;2022-12-07T15:36:32;5.70;62.10
26414;DHT22;14108;53.668;10.288;2022-12-07T15:39:00;5.60;62.10
26414;DHT22;14108;53.668;10.288;2022-12-07T15:41:28;5.60;62.30
26414;DHT22;14108;53.668;10.288;2022-12-07T15:43:55;5.60;62.40
26414;DHT22;14108;53.668;10.288;2022-12-07T15:46:41;5.50;62.40
26414;DHT22;14108;53.668;10.288;2022-12-07T15:49:12;5.50;62.30
26414;DHT22;14108;53.668;10.288;2022-12-07T15:51:40;5.40;62.30
26414;DHT22;14108;53.668;10.288;2022-12-07T15:54:07;5.40;62.50
26414;DHT22;14108;53.668;10.288;2022-12-07T15:56:35;5.40;62.60
26414;DHT22;14108;53.668;10.288;2022-12-07T15:59:02;5.40;62.80
26414;DHT22;14108;53.668;10.288;2022-12-07T16:01:30;5.40;62.80
26414;DHT22;14108;53.668;10.288;2022-12-07T16:03:58;5.40;62.90
26414;DHT22;14108;53.668;10.288;2022-12-07T16:06:26;5.30;62.80
26414;DHT22;14108;53.668;10.288;2022-12-07T16:08:53;5.30;62.80
26414;DHT22;14108;53.668;10.288;2022-12-07T16:11:21;5.30;62.90
26414;DHT22;14108;53.668;10.288;2022-12-07T16:13:48;5.30;63.10